Time;durP1;ratioP1;P1;durP2;ratioP2;P2;SDS_P1;SDS_P2;PMS_P1;PMS_P2;Temp;Humidity;BMP_temperature;BMP_pressure;BME280_temperature;BME280_humidity;BME280_pressure;Samples;Min_cycle;Max_cycle;Signal;HPM_P1;HPM_P2
2022/07/17 00:02:22;;;;;;;8.20;1.83;;;;;;;15.60;63.18;102602.03;5267847;28;20062;-84
2022/07/17 00:04:53;;;;;;;7.07;1.80;;;;;;;15.57;63.42;102611.88;5266608;28;20135;-84
2022/07/17 00:07:24;;;;;;;9.50;2.03;;;;;;;15.65;62.74;102590.38;5269126;28;20028;-83
2022/07/17 00:09:55;;;;;;;8.10;1.73;;;;;;;15.54;63.56;102604.13;5270197;28;20033;-83
2022/07/17 00:12:27;;;;;;;11.53;2.07;;;;;;;15.52;63.64;102606.00;5272206;28;20039;-86
2022/07/17 00:14:59;;;;;;;7.67;2.83;;;;;;;15.35;64.18;102610.38;5266991;28;20049;-84
2022/07/17 00:17:30;;;;;;;9.10;2.70;;;;;;;15.30;64.22;102601.84;5265226;28;20035;-84
2022/07/17 00:20:03;;;;;;;12.47;2.63;;;;;;;15.42;63.75;102617.06;5285938;28;20028;-83
2022/07/17 00:22:35;;;;;;;7.70;2.17;;;;;;;15.24;64.56;102613.56;5271133;28;20464;-83
2022/07/17 00:25:06;;;;;;;6.33;2.37;;;;;;;15.21;64.36;102616.38;5270852;28;20032;-83
2022/07/17 00:27:38;;;;;;;12.43;2.10;;;;;;;15.30;64.13;102615.06;5271309;28;20029;-84
2022/07/17 00:30:10;;;;;;;7.77;2.13;;;;;;;15.02;64.98;102609.41;5271205;28;20042;-83
2022/07/17 00:32:42;;;;;;;7.57;2.13;;;;;;;15.10;64.73;102606.38;5270715;28;20497;-84
2022/07/17 00:35:13;;;;;;;10.03;2.83;;;;;;;15.00;65.31;102606.84;5270008;28;20036;-84
2022/07/17 00:37:46;;;;;;;13.80;3.53;;;;;;;14.97;65.51;102611.44;5272038;28;20037;-84
2022/07/17 00:40:20;;;;;;;6.60;2.50;;;;;;;15.16;65.04;102608.72;5271676;28;20093;-84
2022/07/17 00:42:52;;;;;;;7.65;2.20;;;;;;;15.02;65.18;102613.81;5271933;28;20038;-81
2022/07/17 00:45:24;;;;;;;8.53;2.50;;;;;;;14.86;65.90;102606.69;5270440;28;20025;-82
2022/07/17 00:48:01;;;;;;;11.33;2.80;;;;;;;14.84;66.10;102611.19;5269864;28;20031;-81
2022/07/17 00:50:35;;;;;;;7.57;2.70;;;;;;;14.82;66.30;102613.91;5271078;28;20087;-83
2022/07/17 00:53:08;;;;;;;6.85;2.80;;;;;;;14.74;66.48;102610.75;5270641;28;20027;-84
2022/07/17 00:55:41;;;;;;;11.57;2.80;;;;;;;14.67;66.85;102610.22;5270436;28;20752;-83
2022/07/17 00:58:18;;;;;;;9.20;3.00;;;;;;;14.82;66.02;102607.78;5269037;28;20032;-84
2022/07/17 01:00:52;;;;;;;6.57;2.63;;;;;;;15.03;65.17;102597.91;5267735;28;20069;-84
2022/07/17 01:03:25;;;;;;;6.78;2.40;;;;;;;15.19;64.42;102602.41;5270614;28;20086;-84
2022/07/17 01:05:56;;;;;;;9.50;2.70;;;;;;;15.12;65.16;102602.72;5270358;28;20135;-74
2022/07/17 01:08:28;;;;;;;5.67;2.50;;;;;;;14.85;66.24;102607.63;5270328;28;20037;-84
2022/07/17 01:10:59;;;;;;;6.67;2.37;;;;;;;14.69;66.39;102591.69;5268418;28;20467;-84
2022/07/17 01:13:31;;;;;;;8.87;2.50;;;;;;;14.86;66.09;102593.50;5269368;28;20066;-83
2022/07/17 01:16:02;;;;;;;7.13;2.90;;;;;;;14.91;65.55;102595.91;5267038;28;20444;-84
2022/07/17 01:18:34;;;;;;;9.13;2.60;;;;;;;14.96;65.60;102594.75;5270192;28;20032;-84
2022/07/17 01:21:06;;;;;;;12.30;3.57;;;;;;;14.50;67.51;102593.41;5269754;28;20107;-83
2022/07/17 01:23:37;;;;;;;6.77;2.50;;;;;;;14.72;67.20;102596.78;5271693;28;20123;-84
2022/07/17 01:26:09;;;;;;;9.77;2.63;;;;;;;14.91;66.20;102596.75;5269953;28;20035;-84
2022/07/17 01:28:40;;;;;;;6.20;2.60;;;;;;;14.95;65.69;102600.97;5269346;28;20089;-84
2022/07/17 01:31:12;;;;;;;13.97;4.00;;;;;;;14.55;67.27;102587.94;5268889;28;20025;-83
2022/07/17 01:33:43;;;;;;;8.60;2.40;;;;;;;14.78;66.89;102606.19;5270535;28;20033;-84
2022/07/17 01:36:14;;;;;;;7.23;2.10;;;;;;;14.51;67.85;102589.88;5270684;28;20025;-84
2022/07/17 01:38:45;;;;;;;6.63;2.17;;;;;;;14.62;67.40;102588.50;5269897;28;20475;-83
2022/07/17 01:41:17;;;;;;;7.43;2.70;;;;;;;14.32;68.60;102584.63;5269947;28;20091;-83
2022/07/17 01:43:48;;;;;;;7.10;2.30;;;;;;;14.35;68.41;102586.25;5269673;28;20435;-84
2022/07/17 01:46:20;;;;;;;7.10;2.40;;;;;;;14.01;69.53;102571.16;5269194;28;20099;-83
2022/07/17 01:48:51;;;;;;;11.73;3.13;;;;;;;13.89;70.50;102590.97;5286154;28;20658;-84
2022/07/17 01:51:22;;;;;;;6.40;2.63;;;;;;;14.10;69.80;102590.06;5270337;28;20037;-83
2022/07/17 01:53:53;;;;;;;7.47;2.57;;;;;;;14.03;70.12;102592.97;5269538;28;20032;-84
2022/07/17 01:56:25;;;;;;;6.60;2.87;;;;;;;14.01;70.17;102597.50;5270489;28;20679;-84
2022/07/17 01:58:57;;;;;;;9.87;3.57;;;;;;;13.92;70.54;102587.38;5269681;28;20032;-85
2022/07/17 02:01:28;;;;;;;8.80;2.37;;;;;;;14.28;68.77;102591.84;5268279;28;20090;-84
2022/07/17 02:03:59;;;;;;;5.97;2.60;;;;;;;14.10;69.18;102595.34;5270164;28;20097;-85
2022/07/17 02:06:30;;;;;;;6.17;2.60;;;;;;;13.91;70.06;102604.13;5270222;28;20473;-83
2022/07/17 02:09:02;;;;;;;9.93;2.57;;;;;;;14.23;69.05;102604.38;5270221;28;20058;-83
2022/07/17 02:11:33;;;;;;;5.93;2.70;;;;;;;14.33;68.91;102611.84;5269772;28;20023;-84
2022/07/17 02:14:05;;;;;;;10.63;2.80;;;;;;;14.33;68.55;102596.88;5270430;28;20071;-84
2022/07/17 02:16:36;;;;;;;8.83;3.03;;;;;;;14.02;69.33;102588.66;5270137;28;20031;-85
2022/07/17 02:19:07;;;;;;;7.43;2.67;;;;;;;13.81;70.61;102594.94;5271118;28;20033;-84
2022/07/17 02:21:39;;;;;;;10.20;2.80;;;;;;;14.08;69.70;102605.09;5272899;28;20028;-84
2022/07/17 02:24:11;;;;;;;4.93;2.50;;;;;;;13.90;70.47;102599.75;5274244;28;20028;-84
2022/07/17 02:26:42;;;;;;;8.97;2.57;;;;;;;14.02;70.10;102601.81;5273507;28;20182;-84
2022/07/17 02:29:13;;;;;;;11.17;3.40;;;;;;;14.01;69.92;102605.41;5273171;28;20082;-83
2022/07/17 02:31:45;;;;;;;8.53;2.60;;;;;;;13.73;70.96;102590.84;5272505;28;20025;-84
2022/07/17 02:34:16;;;;;;;8.73;3.10;;;;;;;13.76;71.02;102590.72;5277036;28;20077;-84
2022/07/17 02:36:47;;;;;;;8.13;2.90;;;;;;;13.72;71.15;102599.66;5275380;28;20024;-84
2022/07/17 02:39:18;;;;;;;11.00;3.53;;;;;;;13.67;71.36;102599.00;5275353;28;20029;-84
2022/07/17 02:41:50;;;;;;;5.93;2.70;;;;;;;13.59;71.43;102603.78;5273196;28;20095;-84
2022/07/17 02:44:21;;;;;;;10.57;3.17;;;;;;;13.52;71.75;102585.63;5273414;28;20100;-83
2022/07/17 02:46:52;;;;;;;9.03;2.70;;;;;;;13.52;71.86;102593.53;5273167;28;20036;-84
2022/07/17 02:49:23;;;;;;;12.27;3.90;;;;;;;13.28;73.33;102585.75;5272585;28;20032;-83
2022/07/17 02:51:55;;;;;;;6.93;2.97;;;;;;;13.33;73.05;102582.94;5273697;28;20116;-84
2022/07/17 02:54:26;;;;;;;7.40;2.97;;;;;;;13.33;72.94;102584.69;5273207;28;20032;-84
2022/07/17 02:56:57;;;;;;;7.40;3.30;;;;;;;13.23;72.92;102579.00;5273323;28;20502;-84
2022/07/17 02:59:29;;;;;;;5.70;2.70;;;;;;;13.26;72.83;102584.97;5272880;28;20765;-84
2022/07/17 03:02:00;;;;;;;8.87;2.73;;;;;;;13.21;73.17;102584.31;5276021;28;20454;-85
2022/07/17 03:04:32;;;;;;;8.70;3.30;;;;;;;13.16;74.02;102583.66;5273788;28;20388;-83
2022/07/17 03:07:03;;;;;;;7.70;3.17;;;;;;;13.05;74.28;102592.88;5273224;28;20060;-84
2022/07/17 03:09:35;;;;;;;10.10;2.73;;;;;;;13.07;74.17;102593.63;5273233;28;20033;-84
2022/07/17 03:12:06;;;;;;;8.70;2.60;;;;;;;13.43;72.68;102596.53;5271975;28;20056;-83
2022/07/17 03:14:37;;;;;;;10.80;3.83;;;;;;;13.14;73.94;102606.53;5272680;28;20029;-84
2022/07/17 03:17:09;;;;;;;6.27;2.60;;;;;;;13.12;73.36;102611.00;5272355;28;20029;-84
2022/07/17 03:19:40;;;;;;;11.47;3.23;;;;;;;13.40;72.71;102605.44;5273622;28;20036;-84
2022/07/17 03:22:11;;;;;;;10.30;3.40;;;;;;;13.46;72.47;102614.81;5271537;28;20120;-84
2022/07/17 03:24:43;;;;;;;12.50;3.47;;;;;;;13.43;72.52;102622.84;5273236;28;20466;-84
2022/07/17 03:27:14;;;;;;;6.97;2.70;;;;;;;13.36;72.67;102605.59;5272991;28;20056;-84
2022/07/17 03:29:46;;;;;;;4.87;2.47;;;;;;;13.41;72.22;102609.75;5272080;28;20044;-84
2022/07/17 03:32:17;;;;;;;6.83;2.90;;;;;;;13.25;72.93;102604.28;5271292;28;20126;-84
2022/07/17 03:34:48;;;;;;;9.70;2.80;;;;;;;12.94;74.04;102600.34;5273014;28;20052;-85
2022/07/17 03:37:20;;;;;;;8.47;2.93;;;;;;;12.83;74.74;102609.53;5273010;28;20487;-85
2022/07/17 03:39:51;;;;;;;9.03;3.33;;;;;;;12.78;75.27;102602.75;5272423;28;20091;-83
2022/07/17 03:42:22;;;;;;;6.43;3.10;;;;;;;13.02;73.69;102600.88;5272344;28;20024;-82
2022/07/17 03:44:53;;;;;;;7.63;3.30;;;;;;;12.85;74.45;102598.09;5278755;28;20047;-84
2022/07/17 03:47:25;;;;;;;6.73;2.83;;;;;;;13.12;73.59;102595.22;5293043;28;20026;-83
2022/07/17 03:49:56;;;;;;;12.07;3.20;;;;;;;12.69;75.92;102602.22;5302752;28;20044;-74
2022/07/17 03:52:27;;;;;;;12.10;4.27;;;;;;;12.88;75.21;102603.25;5273217;28;20051;-85
2022/07/17 03:54:59;;;;;;;10.50;3.57;;;;;;;12.78;75.08;102602.75;5271860;28;20032;-84
2022/07/17 03:57:30;;;;;;;5.93;3.27;;;;;;;13.03;74.24;102602.59;5272431;28;20517;-84
2022/07/17 04:00:03;;;;;;;8.87;3.70;;;;;;;12.98;74.63;102588.78;5270053;28;20030;-84
2022/07/17 04:02:34;;;;;;;6.80;2.83;;;;;;;13.01;74.30;102606.19;5270504;28;20071;-83
2022/07/17 04:05:09;;;;;;;7.53;3.33;;;;;;;12.66;75.59;102601.47;5272249;28;20052;-83
2022/07/17 04:07:41;;;;;;;7.10;3.20;;;;;;;13.08;74.02;102607.66;5272101;28;20028;-84
2022/07/17 04:10:14;;;;;;;5.57;3.27;;;;;;;13.06;74.49;102626.13;5271549;28;20028;-84
2022/07/17 04:12:47;;;;;;;8.83;4.33;;;;;;;13.05;74.63;102621.81;5271240;28;20064;-83
2022/07/17 04:15:49;;;;;;;6.70;3.87;;;;;;;12.75;75.59;102611.63;5270351;28;20036;-83
2022/07/17 04:18:10;;;;;;;9.83;3.20;;;;;;;12.83;75.44;102616.56;5271734;28;20028;-84
2022/07/17 04:20:41;;;;;;;8.50;4.03;;;;;;;12.75;76.18;102624.78;5271477;28;20039;-84
2022/07/17 04:23:13;;;;;;;10.20;3.57;;;;;;;12.66;76.14;102612.00;5270563;28;20036;-84
2022/07/17 04:25:44;;;;;;;7.70;3.50;;;;;;;12.69;76.39;102630.25;5271795;28;20568;-82
2022/07/17 04:28:16;;;;;;;6.83;3.70;;;;;;;12.70;76.63;102626.72;5271185;28;20074;-84
2022/07/17 04:30:47;;;;;;;8.03;3.20;;;;;;;12.66;77.13;102626.00;5270883;28;20056;-82
2022/07/17 04:33:18;;;;;;;10.90;4.07;;;;;;;12.64;77.36;102629.59;5269629;28;20020;-83
2022/07/17 04:35:50;;;;;;;7.43;4.87;;;;;;;12.72;77.50;102624.03;5271297;28;20029;-84
2022/07/17 04:38:21;;;;;;;12.73;3.57;;;;;;;12.74;77.44;102625.66;5271248;28;20024;-84
2022/07/17 04:40:52;;;;;;;6.13;3.40;;;;;;;12.64;77.82;102619.06;5270760;28;20025;-84
2022/07/17 04:43:24;;;;;;;8.90;3.63;;;;;;;12.82;77.35;102618.34;5270348;28;20033;-83
2022/07/17 04:45:55;;;;;;;9.30;4.07;;;;;;;12.90;76.84;102609.25;5249835;28;20039;-84
2022/07/17 04:48:27;;;;;;;7.50;3.80;;;;;;;12.70;78.07;102618.84;5249723;28;20025;-84
2022/07/17 04:50:58;;;;;;;8.67;3.77;;;;;;;12.90;76.68;102610.13;5250737;28;20021;-84
2022/07/17 04:53:30;;;;;;;10.83;3.77;;;;;;;12.87;77.44;102630.44;5250367;28;20020;-84
2022/07/17 04:56:01;;;;;;;6.73;3.90;;;;;;;12.92;77.54;102628.47;5271080;28;20035;-84
2022/07/17 04:58:33;;;;;;;8.73;3.90;;;;;;;12.96;77.52;102635.31;5271388;28;20437;-84
2022/07/17 05:01:04;;;;;;;8.77;4.40;;;;;;;12.89;78.31;102642.63;5269431;28;20024;-84
2022/07/17 05:03:37;;;;;;;13.47;4.00;;;;;;;12.91;78.35;102642.56;5270848;28;20048;-83
2022/07/17 05:06:09;;;;;;;8.80;4.23;;;;;;;13.02;77.80;102645.56;5270031;28;20086;-84
2022/07/17 05:08:40;;;;;;;11.53;4.87;;;;;;;13.02;77.56;102636.84;5270435;28;20441;-84
2022/07/17 05:11:12;;;;;;;11.30;4.00;;;;;;;13.01;78.35;102643.00;5270655;28;20025;-83
2022/07/17 05:13:43;;;;;;;9.03;4.13;;;;;;;13.10;77.68;102647.03;5270374;28;20032;-85
2022/07/17 05:16:14;;;;;;;13.03;5.63;;;;;;;13.05;78.27;102636.72;5267744;28;20035;-85
2022/07/17 05:18:46;;;;;;;7.90;3.73;;;;;;;13.11;77.75;102633.81;5271742;28;20356;-84
2022/07/17 05:21:17;;;;;;;9.43;4.63;;;;;;;13.00;78.67;102626.41;5269979;28;20028;-85
2022/07/17 05:23:48;;;;;;;8.00;4.40;;;;;;;13.22;77.68;102633.38;5274000;28;20100;-85
2022/07/17 05:26:19;;;;;;;12.70;4.67;;;;;;;13.23;77.92;102626.34;5267886;28;20081;-86
2022/07/17 05:28:51;;;;;;;11.13;4.00;;;;;;;13.31;77.40;102633.00;5270324;28;20040;-85
2022/07/17 05:31:22;;;;;;;10.17;4.00;;;;;;;13.16;77.89;102626.59;5269952;28;20660;-84
2022/07/17 05:33:53;;;;;;;9.50;3.93;;;;;;;13.30;77.67;102631.25;5269425;28;20035;-84
2022/07/17 05:36:25;;;;;;;11.20;4.33;;;;;;;13.31;77.75;102640.88;5268837;28;20031;-85
2022/07/17 05:38:56;;;;;;;9.60;4.00;;;;;;;13.36;77.88;102645.94;5270251;28;20453;-84
2022/07/17 05:41:28;;;;;;;10.70;3.80;;;;;;;13.40;77.59;102633.50;5273870;28;20028;-84
2022/07/17 05:43:59;;;;;;;10.20;5.30;;;;;;;13.46;78.11;102633.22;5271465;28;20044;-85
2022/07/17 05:46:30;;;;;;;8.97;3.40;;;;;;;13.55;77.47;102643.41;5269988;28;20032;-84
2022/07/17 05:49:02;;;;;;;7.17;3.60;;;;;;;13.66;76.28;102623.66;5269824;28;20025;-85
2022/07/17 05:51:33;;;;;;;9.43;4.30;;;;;;;13.50;77.75;102624.28;5271241;28;20051;-85
2022/07/17 05:54:04;;;;;;;7.47;3.90;;;;;;;13.67;76.36;102630.59;5272620;28;20025;-85
2022/07/17 05:56:36;;;;;;;9.40;4.50;;;;;;;13.73;74.95;102638.25;5275952;28;20040;-84
2022/07/17 05:59:07;;;;;;;13.53;3.70;;;;;;;13.64;75.38;102626.34;5279543;28;20021;-84
2022/07/17 06:01:38;;;;;;;7.10;3.90;;;;;;;13.67;76.26;102631.47;5273419;28;20081;-84
2022/07/17 06:04:09;;;;;;;11.17;3.97;;;;;;;13.72;75.69;102631.25;5271907;28;20044;-83
2022/07/17 06:06:41;;;;;;;9.03;4.67;;;;;;;13.61;76.35;102617.72;5274093;28;20029;-83
2022/07/17 06:09:12;;;;;;;7.70;3.80;;;;;;;13.79;75.40;102616.03;5273838;28;20036;-83
2022/07/17 06:11:43;;;;;;;13.13;4.87;;;;;;;13.73;76.14;102611.91;5274801;28;20039;-82
2022/07/17 06:14:15;;;;;;;13.07;3.90;;;;;;;13.75;76.25;102594.25;5272760;28;20021;-83
2022/07/17 06:16:46;;;;;;;9.10;4.33;;;;;;;13.84;76.29;102605.31;5273031;28;20032;-83
2022/07/17 06:19:17;;;;;;;6.50;3.70;;;;;;;13.81;75.93;102602.81;5281362;28;20031;-83
2022/07/17 06:21:48;;;;;;;11.07;4.87;;;;;;;14.06;75.18;102612.22;5283581;28;20035;-82
2022/07/17 06:24:20;;;;;;;12.03;4.67;;;;;;;14.12;75.32;102606.69;5282120;28;20033;-82
2022/07/17 06:26:51;;;;;;;7.93;4.03;;;;;;;14.13;75.57;102611.88;5283613;28;20032;-83
2022/07/17 06:29:23;;;;;;;8.80;4.20;;;;;;;14.27;74.57;102613.84;5283440;28;20028;-83
2022/07/17 06:31:54;;;;;;;10.53;5.37;;;;;;;14.30;73.74;102617.25;5278886;28;20029;-83
2022/07/17 06:34:25;;;;;;;10.67;4.60;;;;;;;14.33;73.18;102628.50;5271273;28;20035;-82
2022/07/17 06:36:57;;;;;;;8.23;4.33;;;;;;;14.44;73.48;102635.91;5272620;28;20029;-82
2022/07/17 06:39:28;;;;;;;10.57;3.97;;;;;;;14.50;73.04;102632.13;5273728;28;20032;-82
2022/07/17 06:42:00;;;;;;;10.03;4.50;;;;;;;14.58;73.14;102629.97;5273117;28;20055;-84
2022/07/17 06:44:31;;;;;;;10.93;4.60;;;;;;;14.62;72.38;102631.53;5272971;28;20041;-83
2022/07/17 06:47:02;;;;;;;8.43;4.33;;;;;;;14.72;73.46;102655.66;5271057;28;20043;-83
2022/07/17 06:49:34;;;;;;;12.53;4.20;;;;;;;14.92;73.01;102653.88;5269484;28;20041;-82
2022/07/17 06:52:05;;;;;;;9.47;4.83;;;;;;;14.79;70.73;102637.75;5252621;28;20029;-83
2022/07/17 06:54:36;;;;;;;9.63;4.00;;;;;;;15.06;71.21;102658.44;5263007;28;20037;-82
2022/07/17 06:57:08;;;;;;;11.20;4.40;;;;;;;15.41;69.82;102662.84;5273459;28;20108;-83
2022/07/17 06:59:40;;;;;;;6.90;4.03;;;;;;;15.35;69.46;102658.78;5274009;28;20025;-82
2022/07/17 07:02:11;;;;;;;9.13;3.77;;;;;;;15.54;70.88;102663.09;5270662;28;20703;-83
2022/07/17 07:04:43;;;;;;;9.93;4.57;;;;;;;15.77;69.21;102658.38;5271733;28;20048;-83
2022/07/17 07:07:14;;;;;;;9.40;4.67;;;;;;;15.95;68.94;102647.78;5280060;28;20020;-83
2022/07/17 07:09:45;;;;;;;9.63;3.80;;;;;;;16.32;67.56;102663.41;5293860;28;20111;-83
2022/07/17 07:12:17;;;;;;;9.67;3.97;;;;;;;16.48;67.53;102665.22;5294045;28;20705;-83
2022/07/17 07:14:48;;;;;;;6.07;3.43;;;;;;;16.65;64.57;102666.91;5282313;28;20029;-83
2022/07/17 07:17:20;;;;;;;13.33;4.90;;;;;;;16.81;63.52;102669.50;5272769;28;20626;-82
2022/07/17 07:19:51;;;;;;;8.40;3.03;;;;;;;17.36;63.29;102675.22;5273235;28;20102;-83
2022/07/17 07:22:22;;;;;;;12.53;4.10;;;;;;;17.63;62.90;102674.47;5272963;28;20024;-82
2022/07/17 07:24:54;;;;;;;9.10;3.67;;;;;;;17.92;61.56;102670.97;5271637;28;20020;-82
2022/07/17 07:27:25;;;;;;;10.03;4.17;;;;;;;18.55;59.16;102675.91;5273235;28;20028;-83
2022/07/17 07:29:56;;;;;;;8.63;3.47;;;;;;;18.85;57.83;102669.50;5269525;28;20059;-81
2022/07/17 07:32:27;;;;;;;10.50;4.27;;;;;;;19.38;56.58;102665.16;5272706;28;20024;-83
2022/07/17 07:34:59;;;;;;;10.40;3.70;;;;;;;20.00;54.76;102664.47;5272653;28;20383;-83
2022/07/17 07:37:30;;;;;;;9.10;2.63;;;;;;;20.55;52.78;102656.97;5272017;28;20055;-84
2022/07/17 07:40:02;;;;;;;7.83;2.57;;;;;;;21.08;50.85;102657.56;5270473;28;20107;-83
2022/07/17 07:42:34;;;;;;;8.77;2.58;;;;;;;21.30;48.12;102658.53;5270348;28;20138;-83
2022/07/17 07:45:05;;;;;;;8.55;2.63;;;;;;;21.88;48.05;102667.44;5271469;28;20103;-84
2022/07/17 07:47:44;;;;;;;4.97;2.67;;;;;;;22.26;46.23;102667.97;5273087;28;20158;-83
2022/07/17 07:50:16;;;;;;;6.95;2.22;;;;;;;22.25;45.33;102666.28;5271337;28;20033;-83
2022/07/17 07:52:47;;;;;;;5.18;1.88;;;;;;;22.78;44.01;102671.84;5273081;28;20025;-83
2022/07/17 07:55:21;;;;;;;7.47;2.10;;;;;;;23.12;43.58;102666.31;5271446;28;20021;-83
2022/07/17 07:58:10;;;;;;;10.88;3.47;;;;;;;24.00;45.01;102677.56;5269656;28;20021;-83
2022/07/17 08:00:43;;;;;;;3.80;1.40;;;;;;;23.84;40.95;102673.56;5269103;28;20047;-85
2022/07/17 08:03:15;;;;;;;8.13;1.90;;;;;;;24.48;40.09;102673.28;5272169;28;20090;-83
2022/07/17 08:05:46;;;;;;;9.25;2.03;;;;;;;24.01;39.59;102677.41;5269718;28;20354;-84
2022/07/17 08:08:17;;;;;;;4.60;1.50;;;;;;;24.28;38.75;102667.03;5271426;28;20023;-83
2022/07/17 08:10:49;;;;;;;4.65;1.95;;;;;;;24.87;38.88;102675.06;5287754;28;20491;-84
2022/07/17 08:13:20;;;;;;;9.18;2.45;;;;;;;25.46;37.71;102670.59;5279468;28;20024;-85
2022/07/17 08:15:51;;;;;;;6.55;2.50;;;;;;;25.24;37.16;102688.72;5280431;28;20103;-82
2022/07/17 08:18:23;;;;;;;9.73;2.72;;;;;;;24.72;39.44;102673.81;5277130;28;20032;-77
2022/07/17 08:20:54;;;;;;;6.03;2.80;;;;;;;24.52;39.79;102685.38;5272411;28;20071;-78
2022/07/17 08:23:26;;;;;;;10.73;3.40;;;;;;;23.87;40.15;102691.16;5286750;28;20570;-77
2022/07/17 08:25:57;;;;;;;5.18;1.90;;;;;;;23.57;40.87;102680.34;5286010;28;20032;-78
2022/07/17 08:28:28;;;;;;;4.88;2.15;;;;;;;23.07;41.60;102668.53;5271396;28;20063;-77
2022/07/17 08:30:59;;;;;;;10.65;2.25;;;;;;;22.76;42.85;102681.81;5269367;28;20036;-76
2022/07/17 08:33:31;;;;;;;7.60;2.47;;;;;;;22.94;42.35;102679.38;5270346;28;20143;-77
2022/07/17 08:36:02;;;;;;;7.75;2.15;;;;;;;22.93;43.13;102675.88;5270137;28;20020;-77
2022/07/17 08:38:33;;;;;;;7.18;2.03;;;;;;;22.77;43.67;102678.13;5271498;28;20036;-76
2022/07/17 08:41:05;;;;;;;5.75;2.22;;;;;;;22.56;43.01;102671.78;5270507;28;20115;-76
2022/07/17 08:43:36;;;;;;;6.95;1.30;;;;;;;22.48;42.71;102671.56;5278779;28;20043;-77
2022/07/17 08:46:10;;;;;;;7.20;2.22;;;;;;;22.59;43.25;102667.97;5285304;28;20050;-76
2022/07/17 08:48:42;;;;;;;;;;;;;;;23.08;42.86;102672.88;5282129;28;20024;-76
2022/07/17 08:51:17;;;;;;;9.48;1.90;;;;;;;22.05;42.85;102667.88;5279494;28;20025;-76
2022/07/17 08:53:48;;;;;;;7.00;1.40;;;;;;;22.45;42.54;102667.31;5271860;28;20028;-76
2022/07/17 08:56:20;;;;;;;4.38;1.30;;;;;;;22.26;41.39;102664.44;5277918;28;20538;-76
2022/07/17 08:58:52;;;;;;;7.45;1.58;;;;;;;22.06;42.63;102674.94;5279823;28;20482;-76
2022/07/17 09:01:24;;;;;;;8.88;2.10;;;;;;;22.39;43.58;102665.16;5277417;28;20027;-75
2022/07/17 09:04:05;;;;;;;6.53;1.60;;;;;;;22.45;43.42;102664.63;5273405;28;20040;-75
2022/07/17 09:06:37;;;;;;;7.65;1.73;;;;;;;22.53;43.84;102666.69;5274133;28;20016;-75
2022/07/17 09:09:13;;;;;;;11.07;2.10;;;;;;;22.35;44.76;102667.22;5281917;28;20047;-76
2022/07/17 09:11:54;;;;;;;5.25;2.05;;;;;;;22.29;43.16;102669.56;5273698;28;20505;-72
2022/07/17 09:14:38;;;;;;;3.67;1.40;;;;;;;22.81;42.94;102668.91;5270242;28;20067;-74
2022/07/17 09:17:11;;;;;;;6.75;1.65;;;;;;;22.71;40.85;102661.66;5259868;28;20017;-75
2022/07/17 09:19:45;;;;;;;5.55;1.83;;;;;;;22.50;41.86;102661.59;5290153;28;20111;-72
2022/07/17 09:22:23;;;;;;;;;;;;;;;23.04;42.63;102660.78;5291981;28;20457;-71
2022/07/17 09:24:58;;;;;;;5.78;1.77;;;;;;;22.29;42.08;102664.22;5286170;28;19916;-75
2022/07/17 09:27:31;;;;;;;5.60;1.48;;;;;;;22.53;42.32;102660.50;5269402;28;20036;-75
2022/07/17 09:30:05;;;;;;;5.30;1.80;;;;;;;22.76;41.07;102665.78;5269576;28;20024;-73
2022/07/17 09:32:38;;;;;;;5.28;1.50;;;;;;;22.59;41.29;102654.63;5272551;28;20472;-75
2022/07/17 09:35:10;;;;;;;7.68;1.92;;;;;;;22.37;41.04;102656.44;5270996;28;20077;-74
2022/07/17 09:37:42;;;;;;;6.07;1.70;;;;;;;22.59;41.62;102658.16;5268713;28;20024;-74
2022/07/17 09:41:09;;;;;;;7.05;1.80;;;;;;;23.06;42.27;102661.47;5271162;28;20085;-74
2022/07/17 09:43:07;;;;;;;8.45;2.03;;;;;;;22.94;39.73;102656.19;5269804;28;20039;-74
2022/07/17 09:45:39;;;;;;;4.95;1.45;;;;;;;23.09;38.00;102658.56;5270368;28;20029;-77
2022/07/17 09:48:11;;;;;;;6.55;1.77;;;;;;;23.01;38.07;102663.69;5268047;28;20082;-78
2022/07/17 09:50:43;;;;;;;4.22;1.67;;;;;;;22.75;39.09;102656.91;5269289;28;20479;-73
2022/07/17 09:53:16;;;;;;;4.40;1.88;;;;;;;23.06;39.31;102664.13;5268816;28;20032;-74
2022/07/17 09:55:49;;;;;;;6.70;1.92;;;;;;;23.37;38.87;102658.00;5265627;28;20119;-75
2022/07/17 09:58:22;;;;;;;7.38;2.08;;;;;;;23.16;38.05;102654.34;5270796;28;20062;-73
2022/07/17 10:00:53;;;;;;;9.43;2.13;;;;;;;23.36;39.32;102659.81;5265678;28;20079;-75
2022/07/17 10:03:25;;;;;;;5.63;1.90;;;;;;;23.18;38.58;102655.06;5267576;28;20064;-73
2022/07/17 10:05:57;;;;;;;8.88;2.00;;;;;;;23.78;38.39;102661.56;5268138;28;20032;-74
2022/07/17 10:08:31;;;;;;;8.40;2.03;;;;;;;23.36;38.37;102654.47;5267852;28;20025;-74
2022/07/17 10:11:02;;;;;;;;;;;;;;;23.88;39.37;102660.72;5264865;28;20430;-77
2022/07/17 10:13:36;;;;;;;7.65;1.60;;;;;;;23.81;39.26;102660.44;5252529;28;19958;-77
2022/07/17 10:16:08;;;;;;;4.90;1.50;;;;;;;23.79;38.50;102654.41;5264393;28;20037;-76
2022/07/17 10:18:44;;;;;;;2.72;1.35;;;;;;;23.93;38.13;102656.66;5267680;28;20053;-75
2022/07/17 10:21:18;;;;;;;3.35;1.23;;;;;;;23.84;38.94;102659.34;5262856;28;20025;-77
2022/07/17 10:23:52;;;;;;;3.88;1.35;;;;;;;24.04;37.69;102662.91;5255873;28;20479;-77
2022/07/17 10:26:38;;;;;;;10.50;1.60;;;;;;;24.24;37.20;102660.28;5266012;28;20033;-76
2022/07/17 10:29:25;;;;;;;5.20;1.92;;;;;;;24.20;37.86;102654.38;5280090;28;20016;-76
2022/07/17 10:31:58;;;;;;;6.15;1.60;;;;;;;24.06;37.43;102655.56;5257771;28;20130;-76
2022/07/17 10:34:41;;;;;;;7.28;1.67;;;;;;;24.09;36.96;102652.63;5265984;28;20020;-76
2022/07/17 10:37:24;;;;;;;8.70;2.00;;;;;;;24.60;36.78;102647.19;5261068;28;20056;-77
2022/07/17 10:40:04;;;;;;;7.80;2.22;;;;;;;25.27;35.62;102650.91;5265514;28;20170;-77
2022/07/17 10:42:43;;;;;;;4.45;1.60;;;;;;;25.49;35.87;102659.56;5269589;28;20027;-77
2022/07/17 10:45:24;;;;;;;5.90;2.78;;;;;;;25.77;34.68;102654.25;5271636;28;20040;-75
2022/07/17 10:48:07;;;;;;;5.05;1.63;;;;;;;26.33;34.49;102650.63;5272089;28;20028;-76
2022/07/17 10:50:41;;;;;;;5.35;1.90;;;;;;;26.96;33.29;102647.94;5272855;28;20051;-78
2022/07/17 10:53:20;;;;;;;5.40;2.03;;;;;;;27.05;32.40;102647.00;5272180;28;20483;-76
2022/07/17 10:55:54;;;;;;;7.90;2.17;;;;;;;27.95;30.14;102652.13;5291282;28;20115;-77
2022/07/17 10:58:32;;;;;;;6.15;1.60;;;;;;;27.91;30.26;102658.84;5293275;28;20505;-78
2022/07/17 11:01:12;;;;;;;7.85;1.48;;;;;;;28.23;30.72;102654.53;5292026;28;20012;-77
2022/07/17 11:03:55;;;;;;;5.80;2.53;;;;;;;28.21;31.97;102663.78;5292682;28;20847;-78
2022/07/17 11:06:32;;;;;;;5.63;1.40;;;;;;;28.42;31.25;102663.31;5292475;28;20055;-77
2022/07/17 11:09:10;;;;;;;6.07;1.60;;;;;;;29.03;29.15;102639.72;5292106;28;20089;-78
2022/07/17 11:11:49;;;;;;;5.15;1.35;;;;;;;29.12;29.50;102657.53;5293238;28;20062;-76
2022/07/17 11:14:26;;;;;;;8.82;2.35;;;;;;;29.34;28.45;102647.03;5291621;28;20475;-76
2022/07/17 11:17:00;;;;;;;6.15;2.20;;;;;;;28.98;28.88;102649.16;5292302;28;20055;-76
2022/07/17 11:19:34;;;;;;;5.05;1.67;;;;;;;29.06;29.98;102647.47;5293233;28;20024;-76
2022/07/17 11:22:07;;;;;;;4.05;1.50;;;;;;;29.25;29.40;102637.28;5293382;28;20675;-77
2022/07/17 11:24:44;;;;;;;4.93;1.52;;;;;;;29.42;28.60;102644.28;5293119;28;20027;-77
2022/07/17 11:27:24;;;;;;;3.20;1.25;;;;;;;28.74;29.25;102633.84;5292552;28;20050;-79
2022/07/17 11:29:57;;;;;;;4.18;1.77;;;;;;;28.93;28.19;102629.91;5286661;28;20025;-78
2022/07/17 11:32:36;;;;;;;;;;;;;;;29.89;29.37;102638.16;5272410;28;20033;-79
2022/07/17 11:35:16;;;;;;;5.78;1.80;;;;;;;29.10;29.87;102633.44;5271687;28;19954;-79
2022/07/17 11:37:48;;;;;;;8.20;1.65;;;;;;;28.70;28.56;102630.63;5271468;28;20039;-79
2022/07/17 11:40:20;;;;;;;6.60;2.20;;;;;;;28.61;27.41;102637.03;5271937;28;20035;-79
2022/07/17 11:43:00;;;;;;;7.60;1.77;;;;;;;28.47;29.81;102642.09;5271647;28;20020;-77
2022/07/17 11:45:31;;;;;;;3.78;1.80;;;;;;;28.71;29.67;102648.47;5286963;28;20403;-78
2022/07/17 11:48:03;;;;;;;6.72;2.03;;;;;;;28.91;28.28;102621.16;5270890;28;20031;-78
2022/07/17 11:50:35;;;;;;;7.53;2.28;;;;;;;28.49;30.55;102623.91;5271062;28;20090;-78